createdAt,value
2022-12-09T00:00:05.972Z,63.59
2022-12-09T00:01:05.551Z,60.11
2022-12-09T00:02:05.575Z,55.95
2022-12-09T00:03:05.402Z,51.25
2022-12-09T00:04:05.608Z,54.64
2022-12-09T00:05:05.616Z,44.62
2022-12-09T00:06:05.531Z,58.27
2022-12-09T00:07:05.329Z,61.13
2022-12-09T00:08:05.411Z,62.01
2022-12-09T00:09:05.537Z,56.98
2022-12-09T00:10:05.960Z,56.37
2022-12-09T00:11:05.299Z,52.38
2022-12-09T00:12:05.285Z,62.10
2022-12-09T00:13:05.367Z,56.00
2022-12-09T00:14:05.443Z,51.71
2022-12-09T00:15:05.247Z,50.04
2022-12-09T00:16:05.351Z,57.84
2022-12-09T00:17:05.553Z,61.62
2022-12-09T00:18:05.360Z,53.72
2022-12-09T00:19:06.224Z,46.03
2022-12-09T00:20:05.649Z,42.24
2022-12-09T00:21:05.238Z,51.64
2022-12-09T00:22:05.210Z,52.94
2022-12-09T00:23:05.206Z,59.84
2022-12-09T00:24:05.282Z,59.69
2022-12-09T00:25:05.172Z,52.14
2022-12-09T00:26:05.188Z,50.01
2022-12-09T00:29:05.941Z,47.45
2022-12-09T00:30:05.904Z,58.63
2022-12-09T00:31:05.483Z,52.14
2022-12-09T00:32:05.118Z,57.15
2022-12-09T00:33:05.346Z,51.05
2022-12-09T00:34:05.040Z,61.60
2022-12-09T00:35:05.465Z,61.98
2022-12-09T00:36:05.314Z,56.94
2022-12-09T00:37:05.022Z,46.92
2022-12-09T00:38:05.013Z,56.31
2022-12-09T00:39:05.344Z,54.01
2022-12-09T00:40:05.651Z,51.33
2022-12-09T00:41:05.047Z,55.48
2022-12-09T00:42:05.082Z,54.49
2022-12-09T00:43:04.975Z,47.21
2022-12-09T00:44:04.964Z,57.20
2022-12-09T00:45:05.041Z,57.93
2022-12-09T00:46:05.006Z,50.33
2022-12-09T00:47:05.096Z,45.89
2022-12-09T00:48:04.927Z,50.88
2022-12-09T00:49:05.061Z,44.93
2022-12-09T00:50:05.337Z,42.47
2022-12-09T00:51:04.913Z,43.25
2022-12-09T00:52:04.924Z,58.46
2022-12-09T00:53:04.887Z,59.16
2022-12-09T00:54:04.929Z,46.06
2022-12-09T00:55:05.066Z,59.55
2022-12-09T00:56:05.507Z,56.74
2022-12-09T00:57:05.100Z,61.39
2022-12-09T00:58:04.945Z,44.75
2022-12-09T00:59:05.989Z,56.66
2022-12-09T01:00:06.717Z,42.30
2022-12-09T01:01:05.955Z,41.24
2022-12-09T01:02:06.230Z,63.14
2022-12-09T01:03:06.011Z,52.80
2022-12-09T01:04:06.206Z,49.43
2022-12-09T01:05:06.312Z,57.85
2022-12-09T01:06:05.869Z,55.30
2022-12-09T01:07:06.454Z,64.66
2022-12-09T01:08:06.310Z,60.63
2022-12-09T01:09:05.955Z,57.20
2022-12-09T01:10:06.413Z,47.29
2022-12-09T01:11:05.967Z,61.04
2022-12-09T01:12:05.831Z,63.78
2022-12-09T01:13:05.816Z,63.93
2022-12-09T01:14:05.830Z,61.01
2022-12-09T01:15:06.550Z,54.45
2022-12-09T01:16:05.970Z,59.78
2022-12-09T01:17:05.837Z,58.06
2022-12-09T01:18:05.782Z,55.45
2022-12-09T01:19:05.879Z,57.66
2022-12-09T01:20:06.541Z,62.93
2022-12-09T01:21:06.760Z,53.28
2022-12-09T01:22:05.789Z,59.78
2022-12-09T01:23:05.828Z,53.00
2022-12-09T01:24:05.734Z,54.16
2022-12-09T01:25:05.912Z,50.53
2022-12-09T01:26:05.720Z,54.21
2022-12-09T01:27:05.700Z,54.61
2022-12-09T01:28:06.742Z,49.58
2022-12-09T01:29:05.752Z,57.28
2022-12-09T01:30:06.419Z,53.35
2022-12-09T01:31:05.736Z,51.97
2022-12-09T01:32:05.757Z,52.85
2022-12-09T01:33:05.690Z,49.75
2022-12-09T01:34:06.931Z,44.45
2022-12-09T01:35:05.649Z,53.22
2022-12-09T01:36:05.939Z,45.91
2022-12-09T01:39:12.555Z,55.67
2022-12-09T01:40:12.728Z,56.71
2022-12-09T01:41:12.768Z,51.68
2022-12-09T01:42:12.454Z,57.31
2022-12-09T01:43:12.442Z,58.72
2022-12-09T01:44:12.487Z,48.57
2022-12-09T01:45:12.499Z,45.99
2022-12-09T01:46:12.573Z,60.99
2022-12-09T01:47:12.833Z,51.56
2022-12-09T01:48:12.459Z,56.06
2022-12-09T01:49:12.464Z,58.72
2022-12-09T01:50:12.569Z,53.43
2022-12-09T01:51:12.442Z,55.24
2022-12-09T01:52:12.581Z,50.57
2022-12-09T01:53:12.459Z,40.43
2022-12-09T01:54:12.612Z,48.53
2022-12-09T01:55:12.358Z,58.59
2022-12-09T01:56:12.348Z,40.89
2022-12-09T01:57:12.602Z,58.58
2022-12-09T01:58:12.585Z,55.92
2022-12-09T01:59:13.442Z,51.28
2022-12-09T02:00:13.788Z,59.08
2022-12-09T02:01:13.398Z,55.67
2022-12-09T02:02:13.709Z,41.02
2022-12-09T02:03:13.729Z,49.38
2022-12-09T02:04:13.679Z,54.98
2022-12-09T02:05:13.443Z,60.67
2022-12-09T02:06:13.483Z,55.96
2022-12-09T02:07:13.379Z,55.10
2022-12-09T02:08:13.392Z,55.34
2022-12-09T02:09:13.418Z,52.84
2022-12-09T02:10:13.555Z,59.49
2022-12-09T02:11:13.586Z,58.12
2022-12-09T02:12:13.305Z,60.75
2022-12-09T02:13:13.301Z,50.52
2022-12-09T02:14:13.517Z,51.78
2022-12-09T02:15:13.478Z,57.26
2022-12-09T02:16:13.569Z,51.28
2022-12-09T02:17:13.715Z,59.08
2022-12-09T02:18:13.269Z,42.04
2022-12-09T02:19:13.259Z,41.55
2022-12-09T02:20:13.685Z,59.51
2022-12-09T02:21:13.250Z,51.44
2022-12-09T02:22:13.260Z,48.60
2022-12-09T02:23:13.414Z,58.01
2022-12-09T02:24:13.546Z,46.54
2022-12-09T02:25:13.363Z,48.04
2022-12-09T02:26:13.213Z,63.76
2022-12-09T02:27:13.390Z,57.19
2022-12-09T02:28:13.460Z,52.56
2022-12-09T02:29:13.170Z,60.31
2022-12-09T02:30:13.567Z,53.90
2022-12-09T02:31:13.235Z,53.85
2022-12-09T02:32:13.244Z,61.87
2022-12-09T02:33:13.335Z,59.08
2022-12-09T02:34:13.139Z,64.64
2022-12-09T02:35:13.128Z,55.90
2022-12-09T02:36:13.138Z,48.99
2022-12-09T02:37:13.296Z,48.23
2022-12-09T02:38:13.300Z,62.58
2022-12-09T02:39:13.362Z,54.25
2022-12-09T02:40:13.330Z,52.56
2022-12-09T02:41:13.287Z,39.66
2022-12-09T02:42:13.432Z,58.08
2022-12-09T02:43:13.406Z,55.20
2022-12-09T02:44:13.102Z,56.05
2022-12-09T02:45:13.074Z,55.80
2022-12-09T02:46:13.219Z,51.33
2022-12-09T02:47:13.455Z,61.51
2022-12-09T02:48:13.097Z,56.70
2022-12-09T02:49:13.018Z,44.54
2022-12-09T02:50:13.462Z,49.18
2022-12-09T02:51:13.002Z,51.08
2022-12-09T02:52:13.844Z,49.01
2022-12-09T02:53:12.992Z,55.04
2022-12-09T02:54:12.973Z,53.46
2022-12-09T02:55:12.968Z,43.24
2022-12-09T02:56:12.965Z,58.48
2022-12-09T02:57:12.957Z,42.02
2022-12-09T02:58:12.937Z,42.80
2022-12-09T02:59:12.939Z,66.73
2022-12-09T03:00:13.404Z,58.43
2022-12-09T03:01:12.973Z,48.26
2022-12-09T03:02:13.089Z,60.01
2022-12-09T03:03:13.293Z,55.76
2022-12-09T03:04:13.341Z,40.28
2022-12-09T03:05:12.905Z,38.61
2022-12-09T03:06:13.156Z,47.62
2022-12-09T03:07:13.200Z,55.14
2022-12-09T03:08:13.654Z,54.71
2022-12-09T03:09:12.950Z,50.02
2022-12-09T03:10:13.025Z,49.63
2022-12-09T03:11:12.866Z,60.79
2022-12-09T03:12:12.843Z,52.08
2022-12-09T03:13:12.859Z,48.93
2022-12-09T03:14:13.147Z,53.64
2022-12-09T03:15:12.812Z,55.33
2022-12-09T03:16:13.177Z,59.54
2022-12-09T03:17:12.926Z,40.42
2022-12-09T03:18:12.919Z,62.68
2022-12-09T03:19:12.864Z,50.53
2022-12-09T03:20:14.020Z,56.02
2022-12-09T03:21:12.758Z,46.87
2022-12-09T03:22:12.986Z,52.17
2022-12-09T03:23:13.371Z,54.23
2022-12-09T03:24:12.753Z,59.83
2022-12-09T03:25:12.948Z,59.16
2022-12-09T03:26:12.719Z,55.55
2022-12-09T03:27:12.778Z,54.28
2022-12-09T03:28:12.849Z,47.42
2022-12-09T03:29:12.689Z,53.46
2022-12-09T03:30:13.304Z,53.78
2022-12-09T03:31:13.124Z,47.62
2022-12-09T03:32:12.802Z,55.69
2022-12-09T03:33:12.881Z,56.91
2022-12-09T03:34:12.738Z,59.35
2022-12-09T03:35:12.719Z,60.12
2022-12-09T03:36:12.639Z,56.62
2022-12-09T03:37:12.721Z,50.62
2022-12-09T03:38:12.626Z,53.38
2022-12-09T03:39:12.834Z,57.51
2022-12-09T03:40:14.345Z,53.22
2022-12-09T03:41:13.598Z,59.21
2022-12-09T03:42:12.629Z,57.32
2022-12-09T03:43:12.589Z,52.62
2022-12-09T03:44:13.351Z,60.82
2022-12-09T03:45:12.645Z,59.70
2022-12-09T03:46:12.953Z,48.66
2022-12-09T03:47:12.968Z,51.21
2022-12-09T03:48:12.538Z,58.33
2022-12-09T03:49:12.529Z,60.01
2022-12-09T03:50:13.101Z,65.68
2022-12-09T03:51:12.515Z,61.20
2022-12-09T03:52:12.806Z,53.89
2022-12-09T03:53:12.500Z,63.25
2022-12-09T03:54:12.654Z,63.19
2022-12-09T03:55:12.853Z,56.85
2022-12-09T03:56:12.485Z,54.50
2022-12-09T03:57:17.062Z,56.36
2022-12-09T03:58:14.456Z,56.98
2022-12-09T03:59:12.504Z,56.25
2022-12-09T04:00:13.319Z,60.79
2022-12-09T04:01:12.870Z,61.61
2022-12-09T04:02:12.621Z,61.87
2022-12-09T04:03:12.775Z,58.47
2022-12-09T04:04:12.601Z,58.24
2022-12-09T04:05:13.788Z,64.58
2022-12-09T04:06:12.553Z,58.72
2022-12-09T04:07:12.398Z,55.56
2022-12-09T04:08:12.854Z,54.34
2022-12-09T04:09:12.506Z,57.21
2022-12-09T04:10:13.490Z,58.21
2022-12-09T04:11:12.391Z,58.79
2022-12-09T04:12:12.357Z,62.91
2022-12-09T04:13:12.484Z,62.29
2022-12-09T04:14:15.574Z,63.18
2022-12-09T04:15:13.377Z,57.48
2022-12-09T04:16:12.436Z,56.72
2022-12-09T04:17:12.707Z,57.92
2022-12-09T04:18:12.430Z,64.04
2022-12-09T04:19:12.489Z,63.77
2022-12-09T04:20:13.087Z,65.06
2022-12-09T04:21:12.301Z,64.55
2022-12-09T04:22:12.284Z,60.64
2022-12-09T04:23:12.636Z,61.76
2022-12-09T04:24:12.481Z,57.78
2022-12-09T04:25:12.307Z,61.96
2022-12-09T04:26:12.251Z,63.00
2022-12-09T04:27:12.594Z,60.52
2022-12-09T04:28:12.246Z,63.75
2022-12-09T04:29:12.577Z,63.49
2022-12-09T04:30:12.735Z,63.33
2022-12-09T04:31:12.249Z,61.91
2022-12-09T04:32:12.707Z,65.07
2022-12-09T04:33:12.188Z,64.06
2022-12-09T04:34:12.189Z,61.82
2022-12-09T04:35:12.545Z,64.69
2022-12-09T04:36:12.455Z,68.49
2022-12-09T04:37:12.201Z,64.13
2022-12-09T04:38:13.157Z,67.01
2022-12-09T04:39:12.200Z,60.26
2022-12-09T04:40:15.614Z,61.83
2022-12-09T04:41:13.217Z,60.21
2022-12-09T04:42:12.203Z,60.85
2022-12-09T04:43:12.168Z,63.21
2022-12-09T04:44:12.110Z,62.70
2022-12-09T04:45:12.094Z,60.37
2022-12-09T04:46:12.210Z,61.97
2022-12-09T04:47:12.196Z,63.05
2022-12-09T04:48:12.138Z,60.12
2022-12-09T04:49:12.475Z,60.01
2022-12-09T04:50:12.511Z,63.31
2022-12-09T04:51:12.072Z,64.11
2022-12-09T04:52:13.129Z,63.51
2022-12-09T04:53:12.048Z,63.36
2022-12-09T04:54:12.353Z,65.95
2022-12-09T04:55:12.124Z,64.84
2022-12-09T04:56:12.100Z,64.93
2022-12-09T04:57:12.402Z,64.31
2022-12-09T04:58:12.167Z,63.42
2022-12-09T04:59:11.985Z,62.36
2022-12-09T05:00:12.436Z,63.69
2022-12-09T05:01:12.143Z,63.47
2022-12-09T05:02:12.178Z,62.92
2022-12-09T05:03:12.156Z,65.14
2022-12-09T05:04:12.245Z,65.52
2022-12-09T05:05:12.319Z,67.50
2022-12-09T05:06:12.505Z,62.65
2022-12-09T05:07:12.090Z,56.43
2022-12-09T05:08:12.341Z,63.43
2022-12-09T05:09:12.375Z,63.00
2022-12-09T05:10:12.639Z,59.99
2022-12-09T05:11:12.073Z,58.37
2022-12-09T05:12:12.081Z,62.69
2022-12-09T05:13:11.987Z,63.62
2022-12-09T05:14:11.970Z,63.40
2022-12-09T05:15:12.099Z,63.13
2022-12-09T05:16:15.993Z,65.89
2022-12-09T05:17:13.923Z,65.38
2022-12-09T05:18:12.018Z,65.76
2022-12-09T05:19:12.067Z,62.42
2022-12-09T05:20:12.379Z,69.07
2022-12-09T05:21:11.982Z,65.78
2022-12-09T05:22:11.860Z,66.43
2022-12-09T05:23:12.011Z,65.77
2022-12-09T05:24:11.831Z,61.43
2022-12-09T05:25:12.124Z,65.06
2022-12-09T05:26:11.938Z,65.70
2022-12-09T05:27:12.079Z,65.51
2022-12-09T05:28:11.804Z,64.12
2022-12-09T05:29:13.383Z,62.27
2022-12-09T05:30:12.063Z,64.52
2022-12-09T05:31:12.242Z,62.33
2022-12-09T05:32:11.820Z,67.26
2022-12-09T05:33:11.892Z,66.04
2022-12-09T05:34:11.814Z,64.77
2022-12-09T05:35:12.081Z,64.66
2022-12-09T05:36:11.845Z,66.92
2022-12-09T05:37:11.825Z,66.73
2022-12-09T05:38:11.766Z,64.99
2022-12-09T05:39:11.732Z,66.27
2022-12-09T05:40:12.234Z,65.01
2022-12-09T05:41:12.009Z,66.76
2022-12-09T05:42:11.745Z,65.05
2022-12-09T05:43:12.657Z,60.76
2022-12-09T05:44:11.763Z,66.89
2022-12-09T05:45:11.799Z,67.34
2022-12-09T05:46:11.753Z,65.47
2022-12-09T05:47:12.138Z,62.95
2022-12-09T05:48:11.827Z,65.19
2022-12-09T05:49:11.962Z,66.81
2022-12-09T05:50:12.616Z,68.43
2022-12-09T05:51:11.778Z,67.34
2022-12-09T05:52:11.613Z,66.82
2022-12-09T05:53:11.706Z,65.62
2022-12-09T05:54:11.988Z,65.80
2022-12-09T05:55:12.015Z,65.17
2022-12-09T05:56:11.715Z,66.00
2022-12-09T05:57:11.643Z,70.71
2022-12-09T05:58:11.555Z,67.31
2022-12-09T05:59:12.133Z,67.30
2022-12-09T06:00:14.434Z,67.09
2022-12-09T06:01:11.921Z,64.97
2022-12-09T06:02:11.642Z,64.82
2022-12-09T06:03:12.020Z,70.69
2022-12-09T06:04:12.023Z,67.73
2022-12-09T06:05:12.086Z,65.96
2022-12-09T06:06:11.651Z,66.08
2022-12-09T06:07:11.607Z,67.63
2022-12-09T06:08:12.731Z,65.18
2022-12-09T06:09:12.212Z,69.14
2022-12-09T06:10:12.353Z,69.12
2022-12-09T06:11:11.896Z,68.06
2022-12-09T06:12:11.795Z,67.10
2022-12-09T06:13:11.637Z,66.43
2022-12-09T06:14:11.586Z,67.18
2022-12-09T06:15:14.445Z,68.10
2022-12-09T06:16:12.895Z,67.53
2022-12-09T06:17:11.828Z,68.33
2022-12-09T06:18:13.975Z,65.19
2022-12-09T06:19:11.475Z,67.51
2022-12-09T06:20:11.914Z,70.44
2022-12-09T06:21:11.525Z,67.96
2022-12-09T06:22:12.749Z,73.37
2022-12-09T06:23:12.541Z,68.81
2022-12-09T06:24:11.704Z,70.91
2022-12-09T06:25:11.720Z,67.87
2022-12-09T06:26:12.096Z,70.48
2022-12-09T06:27:11.664Z,69.22
2022-12-09T06:28:11.286Z,67.84
2022-12-09T06:29:12.344Z,66.45
2022-12-09T06:30:11.452Z,68.47
2022-12-09T06:31:11.717Z,68.28
2022-12-09T06:32:11.614Z,69.56
2022-12-09T06:33:36.945Z,69.18
2022-12-09T06:34:13.304Z,69.33
2022-12-09T06:35:11.984Z,69.54
2022-12-09T06:36:11.425Z,66.07
2022-12-09T06:37:11.520Z,69.50
2022-12-09T06:38:11.412Z,68.47
2022-12-09T06:39:11.456Z,67.37
2022-12-09T06:40:12.502Z,68.28
2022-12-09T06:41:12.395Z,69.76
2022-12-09T06:42:11.419Z,66.98
2022-12-09T06:43:11.226Z,69.84
2022-12-09T06:44:11.710Z,69.27
2022-12-09T06:45:11.554Z,66.26
2022-12-09T06:46:11.403Z,68.88
2022-12-09T06:47:11.224Z,68.06
2022-12-09T06:48:11.623Z,71.49
2022-12-09T06:49:11.884Z,68.18
2022-12-09T06:50:11.535Z,67.36
2022-12-09T06:51:11.298Z,67.76
2022-12-09T06:52:11.246Z,66.07
2022-12-09T06:53:11.393Z,66.20
2022-12-09T06:54:11.183Z,68.76
2022-12-09T06:55:11.692Z,70.48
2022-12-09T06:56:12.558Z,68.94
2022-12-09T06:57:12.171Z,68.34
2022-12-09T06:58:11.243Z,67.34
2022-12-09T06:59:11.305Z,68.25
2022-12-09T07:00:11.420Z,66.82
2022-12-09T07:01:11.382Z,69.75
2022-12-09T07:02:11.575Z,71.44
2022-12-09T07:03:11.329Z,68.26
2022-12-09T07:04:11.477Z,67.20
2022-12-09T07:05:11.451Z,67.92
2022-12-09T07:06:11.165Z,69.10
2022-12-09T07:07:11.202Z,68.12
2022-12-09T07:08:11.210Z,64.94
2022-12-09T07:09:11.413Z,67.87
2022-12-09T07:10:11.447Z,62.66
2022-12-09T07:11:11.182Z,65.46
2022-12-09T07:12:11.079Z,66.56
2022-12-09T07:13:10.943Z,66.89
2022-12-09T07:14:11.471Z,66.20
2022-12-09T07:15:11.215Z,65.05
2022-12-09T07:16:11.112Z,66.09
2022-12-09T07:17:11.285Z,67.65
2022-12-09T07:18:11.167Z,69.19
2022-12-09T07:19:11.156Z,67.27
2022-12-09T07:20:11.218Z,67.19
2022-12-09T07:21:11.291Z,65.18
2022-12-09T07:22:10.957Z,67.25
2022-12-09T07:23:10.894Z,68.19
2022-12-09T07:24:11.337Z,69.60
2022-12-09T07:25:12.174Z,68.48
2022-12-09T07:26:10.882Z,68.10
2022-12-09T07:27:15.765Z,65.27
2022-12-09T07:28:13.325Z,66.83
2022-12-09T07:29:11.138Z,65.66
2022-12-09T07:30:10.988Z,67.22
2022-12-09T07:31:11.115Z,67.06
2022-12-09T07:32:11.005Z,67.32
2022-12-09T07:33:10.943Z,68.98
2022-12-09T07:34:11.063Z,66.08
2022-12-09T07:35:11.381Z,67.98
2022-12-09T07:36:13.482Z,65.33
2022-12-09T07:37:12.067Z,63.70
2022-12-09T07:38:10.961Z,67.08
2022-12-09T07:39:10.926Z,65.94
2022-12-09T07:40:11.126Z,65.99
2022-12-09T07:41:10.779Z,66.24
2022-12-09T07:42:10.804Z,66.70
2022-12-09T07:43:11.154Z,68.05
2022-12-09T07:44:11.899Z,67.51
2022-12-09T07:45:10.939Z,66.86
2022-12-09T07:46:10.795Z,67.49
2022-12-09T07:47:10.983Z,69.38
2022-12-09T07:48:11.077Z,65.48
2022-12-09T07:49:11.061Z,66.54
2022-12-09T07:50:11.108Z,69.03
2022-12-09T07:51:10.870Z,67.68
2022-12-09T07:52:10.910Z,69.06
2022-12-09T07:53:10.684Z,69.24
2022-12-09T07:54:10.639Z,65.92
2022-12-09T07:55:10.931Z,65.25
2022-12-09T07:56:10.635Z,68.83
2022-12-09T07:57:10.783Z,66.89
2022-12-09T07:58:10.733Z,67.80
2022-12-09T07:59:12.983Z,65.41
2022-12-09T08:00:10.900Z,69.32
2022-12-09T08:01:10.811Z,69.70
2022-12-09T08:02:10.690Z,67.80
2022-12-09T08:03:10.991Z,70.11
2022-12-09T08:04:11.202Z,68.33
2022-12-09T08:05:12.122Z,66.65
2022-12-09T08:06:10.963Z,67.25
2022-12-09T08:07:12.886Z,67.48
2022-12-09T08:08:10.997Z,67.16
2022-12-09T08:09:11.156Z,66.72
2022-12-09T08:10:10.823Z,68.85
2022-12-09T08:11:11.074Z,65.83
2022-12-09T08:12:10.949Z,64.68
2022-12-09T08:13:10.987Z,68.65
2022-12-09T08:14:12.598Z,65.76
2022-12-09T08:15:11.831Z,67.86
2022-12-09T08:16:10.835Z,67.07
2022-12-09T08:17:10.614Z,67.96
2022-12-09T08:18:10.562Z,67.54
2022-12-09T08:19:10.748Z,68.28
2022-12-09T08:20:11.150Z,69.86
2022-12-09T08:21:10.507Z,69.13
2022-12-09T08:22:10.605Z,68.68
2022-12-09T08:23:10.556Z,70.98
2022-12-09T08:24:10.532Z,68.24
2022-12-09T08:25:11.123Z,69.30
2022-12-09T08:26:10.580Z,67.58
2022-12-09T08:27:10.547Z,67.81
2022-12-09T08:28:10.495Z,65.56
2022-12-09T08:29:11.014Z,67.24
2022-12-09T08:30:10.943Z,68.78
2022-12-09T08:31:10.593Z,66.63
2022-12-09T08:32:10.504Z,68.47
2022-12-09T08:33:10.502Z,67.53
2022-12-09T08:34:10.888Z,65.33
2022-12-09T08:35:10.463Z,69.01
2022-12-09T08:36:10.371Z,70.39
2022-12-09T08:37:10.420Z,69.59
2022-12-09T08:38:10.334Z,70.56
2022-12-09T08:39:10.841Z,70.00
2022-12-09T08:40:10.614Z,72.19
2022-12-09T08:41:10.543Z,72.03
2022-12-09T08:42:10.358Z,68.65
2022-12-09T08:43:10.334Z,67.72
2022-12-09T08:44:10.378Z,65.90
2022-12-09T08:45:10.695Z,66.30
2022-12-09T08:46:11.225Z,65.66
2022-12-09T08:47:10.661Z,66.92
2022-12-09T08:48:10.522Z,68.73
2022-12-09T08:49:10.466Z,69.27
2022-12-09T08:50:11.412Z,69.93
2022-12-09T08:51:11.357Z,67.61
2022-12-09T08:52:10.249Z,68.31
2022-12-09T08:53:10.627Z,68.88
2022-12-09T08:54:10.686Z,68.64
2022-12-09T08:55:10.220Z,68.68
2022-12-09T08:56:10.327Z,68.93
2022-12-09T08:57:10.186Z,68.02
2022-12-09T08:58:10.461Z,69.30
2022-12-09T08:59:10.435Z,67.80
2022-12-09T09:00:10.861Z,67.99
2022-12-09T09:01:10.570Z,68.43
2022-12-09T09:02:11.555Z,68.29
2022-12-09T09:03:10.547Z,68.65
2022-12-09T09:04:10.635Z,67.17
2022-12-09T09:05:10.570Z,69.74
2022-12-09T09:06:11.184Z,69.67
2022-12-09T09:07:11.527Z,67.06
2022-12-09T09:08:10.419Z,67.79
2022-12-09T09:09:12.422Z,67.60
2022-12-09T09:10:10.588Z,67.04
2022-12-09T09:11:10.421Z,67.83
2022-12-09T09:12:10.199Z,67.78
2022-12-09T09:13:10.314Z,66.58
2022-12-09T09:14:10.132Z,66.61
2022-12-09T09:15:10.511Z,64.88
2022-12-09T09:16:10.388Z,66.74
2022-12-09T09:17:11.242Z,65.34
2022-12-09T09:18:11.151Z,66.59
2022-12-09T09:19:10.505Z,66.90
2022-12-09T09:20:10.991Z,67.99
2022-12-09T09:21:10.417Z,69.07
2022-12-09T09:22:10.006Z,69.40
2022-12-09T09:23:10.099Z,68.98
2022-12-09T09:24:10.421Z,67.45
2022-12-09T09:25:10.662Z,68.47
2022-12-09T09:26:09.922Z,67.71
2022-12-09T09:27:10.326Z,68.48
2022-12-09T09:28:10.062Z,67.40
2022-12-09T09:29:09.908Z,68.54
2022-12-09T09:30:10.664Z,66.69
2022-12-09T09:31:10.236Z,67.69
2022-12-09T09:32:09.992Z,67.20
2022-12-09T09:33:10.793Z,66.72
2022-12-09T09:34:10.212Z,66.40
2022-12-09T09:35:10.245Z,68.51
2022-12-09T09:36:10.714Z,67.68
2022-12-09T09:37:10.843Z,66.92
2022-12-09T09:38:10.101Z,68.83
2022-12-09T09:39:09.942Z,67.71
2022-12-09T09:40:10.499Z,65.10
2022-12-09T09:41:10.122Z,67.04
2022-12-09T09:42:09.861Z,68.03
2022-12-09T09:43:09.781Z,69.51
2022-12-09T09:44:10.257Z,68.18
2022-12-09T09:45:09.969Z,68.84
2022-12-09T09:46:10.113Z,65.98
2022-12-09T09:47:10.018Z,66.07
2022-12-09T09:48:10.287Z,65.35
2022-12-09T09:49:10.365Z,66.98
2022-12-09T09:50:10.660Z,70.49
2022-12-09T09:51:09.850Z,68.39
2022-12-09T09:52:10.206Z,66.37
2022-12-09T09:53:09.741Z,68.72
2022-12-09T09:54:09.996Z,66.94
2022-12-09T09:55:11.814Z,67.96
2022-12-09T09:56:09.686Z,68.48
2022-12-09T09:57:10.186Z,69.65
2022-12-09T09:58:09.845Z,70.29
2022-12-09T09:59:09.826Z,71.26
2022-12-09T10:00:11.211Z,69.16
2022-12-09T10:01:09.858Z,67.96
2022-12-09T10:02:09.918Z,68.26
2022-12-09T10:03:10.508Z,69.46
2022-12-09T10:04:09.930Z,66.77
2022-12-09T10:05:10.178Z,69.22
2022-12-09T10:06:09.877Z,66.74
2022-12-09T10:07:09.834Z,68.87
2022-12-09T10:08:10.195Z,67.76
2022-12-09T10:09:10.373Z,66.28
2022-12-09T10:10:10.304Z,65.76
2022-12-09T10:11:10.980Z,69.91
2022-12-09T10:12:09.890Z,66.72
2022-12-09T10:13:16.117Z,65.77
2022-12-09T10:14:12.079Z,72.70
2022-12-09T10:15:09.795Z,68.24
2022-12-09T10:16:09.819Z,66.79
2022-12-09T10:17:09.771Z,69.39
2022-12-09T10:18:09.716Z,69.89
2022-12-09T10:19:09.996Z,69.19
2022-12-09T10:20:09.948Z,67.08
2022-12-09T10:21:09.713Z,66.42
2022-12-09T10:22:09.678Z,66.67
2022-12-09T10:23:10.465Z,68.74
2022-12-09T10:24:09.565Z,68.78
2022-12-09T10:25:09.678Z,68.22
2022-12-09T10:26:09.546Z,66.61
2022-12-09T10:27:09.709Z,67.40
2022-12-09T10:28:09.522Z,69.27
2022-12-09T10:29:10.219Z,69.07
2022-12-09T10:30:10.262Z,67.94
2022-12-09T10:31:09.589Z,67.90
2022-12-09T10:32:09.722Z,66.02
2022-12-09T10:33:09.569Z,68.71
2022-12-09T10:34:10.041Z,66.48
2022-12-09T10:35:09.577Z,66.88
2022-12-09T10:36:09.725Z,70.09
2022-12-09T10:37:09.730Z,69.09
2022-12-09T10:38:09.738Z,67.21
2022-12-09T10:39:09.769Z,67.84
2022-12-09T10:40:09.851Z,65.85
2022-12-09T10:41:09.328Z,69.31
2022-12-09T10:42:09.806Z,69.26
2022-12-09T10:43:09.480Z,67.61
2022-12-09T10:44:09.699Z,68.96
2022-12-09T10:45:09.395Z,67.75
2022-12-09T10:46:25.575Z,67.41
2022-12-09T10:47:11.760Z,67.38
2022-12-09T10:48:09.340Z,66.92
2022-12-09T10:49:09.780Z,68.42
2022-12-09T10:50:10.070Z,68.43
2022-12-09T10:51:09.638Z,67.39
2022-12-09T10:52:09.334Z,66.00
2022-12-09T10:53:09.774Z,68.09
2022-12-09T10:54:09.725Z,69.02
2022-12-09T10:55:09.263Z,68.31
2022-12-09T10:56:09.296Z,67.98
2022-12-09T10:57:09.634Z,67.62
2022-12-09T10:58:09.651Z,69.00
2022-12-09T10:59:10.479Z,68.36
2022-12-09T11:00:09.854Z,68.52
2022-12-09T11:01:09.579Z,67.60
2022-12-09T11:02:09.900Z,68.95
2022-12-09T11:03:09.254Z,67.72
2022-12-09T11:04:09.768Z,69.29
2022-12-09T11:05:09.364Z,68.82
2022-12-09T11:06:09.483Z,68.29
2022-12-09T11:07:09.459Z,67.89
2022-12-09T11:08:09.687Z,68.86
2022-12-09T11:09:09.396Z,68.22
2022-12-09T11:10:09.813Z,68.75
2022-12-09T11:11:09.437Z,67.46
2022-12-09T11:12:10.209Z,66.85
2022-12-09T11:13:09.151Z,68.85
2022-12-09T11:14:09.477Z,69.30
2022-12-09T11:15:09.082Z,67.30
2022-12-09T11:16:09.277Z,68.31
2022-12-09T11:17:09.629Z,68.77
2022-12-09T11:18:09.617Z,69.58
2022-12-09T11:19:09.161Z,67.63
2022-12-09T11:20:09.983Z,70.72
2022-12-09T11:21:09.560Z,70.39
2022-12-09T11:22:09.416Z,69.75
2022-12-09T11:23:09.159Z,68.63
2022-12-09T11:24:09.541Z,69.39
2022-12-09T11:25:09.420Z,66.14
2022-12-09T11:26:10.334Z,68.03
2022-12-09T11:27:08.989Z,67.04
2022-12-09T11:28:09.371Z,71.02
2022-12-09T11:29:10.047Z,69.80
2022-12-09T11:30:13.137Z,68.78
2022-12-09T11:31:39.013Z,68.60
2022-12-09T11:32:11.125Z,68.59
2022-12-09T11:33:09.104Z,67.27
2022-12-09T11:34:09.120Z,67.54
2022-12-09T11:35:09.438Z,69.24
2022-12-09T11:36:08.921Z,65.78
2022-12-09T11:37:08.887Z,67.78
2022-12-09T11:38:08.880Z,67.90
2022-12-09T11:39:08.877Z,67.72
2022-12-09T11:40:09.200Z,69.30
2022-12-09T11:41:08.854Z,67.47
2022-12-09T11:42:16.072Z,66.15
2022-12-09T11:43:10.839Z,67.87
2022-12-09T11:44:08.835Z,73.55
2022-12-09T11:45:08.833Z,67.02
2022-12-09T11:46:08.816Z,67.74
2022-12-09T11:47:09.508Z,66.23
2022-12-09T11:48:32.544Z,65.47
2022-12-09T11:49:10.802Z,71.23
2022-12-09T11:50:09.896Z,69.73
2022-12-09T11:51:08.787Z,67.51
2022-12-09T11:52:08.775Z,68.44
2022-12-09T11:53:08.770Z,66.78
2022-12-09T11:54:08.767Z,68.13
2022-12-09T11:55:08.775Z,68.39
2022-12-09T11:56:09.382Z,67.68
2022-12-09T11:57:08.744Z,67.93
2022-12-09T11:58:09.537Z,68.17
2022-12-09T11:59:09.745Z,69.27
2022-12-09T12:00:08.954Z,68.59
2022-12-09T12:01:08.693Z,68.47
2022-12-09T12:02:08.739Z,70.11
2022-12-09T12:03:08.710Z,70.27
2022-12-09T12:04:08.679Z,70.47
2022-12-09T12:05:08.672Z,69.98
2022-12-09T12:06:09.504Z,68.35
2022-12-09T12:07:08.645Z,67.24
2022-12-09T12:08:08.734Z,68.55
2022-12-09T12:09:08.679Z,71.18
2022-12-09T12:10:08.871Z,69.10
2022-12-09T12:11:14.848Z,68.06
2022-12-09T12:12:10.609Z,69.32
2022-12-09T12:13:08.600Z,68.52
2022-12-09T12:14:08.609Z,68.78
2022-12-09T12:15:08.680Z,68.45
2022-12-09T12:16:08.574Z,68.40
2022-12-09T12:17:08.627Z,66.95
2022-12-09T12:18:08.564Z,69.40
2022-12-09T12:19:08.556Z,71.68
2022-12-09T12:20:08.827Z,69.65
2022-12-09T12:21:09.547Z,70.63
2022-12-09T12:22:08.548Z,69.07
2022-12-09T12:23:08.527Z,69.99
2022-12-09T12:24:08.529Z,69.86
2022-12-09T12:25:12.507Z,67.48
2022-12-09T12:26:10.511Z,68.83
2022-12-09T12:27:08.494Z,68.10
2022-12-09T12:28:08.490Z,67.01
2022-12-09T12:29:08.474Z,65.53
2022-12-09T12:30:08.680Z,69.05
2022-12-09T12:31:08.487Z,66.55
2022-12-09T12:32:08.566Z,67.54
2022-12-09T12:34:24.754Z,68.54
2022-12-09T12:35:10.430Z,67.22
2022-12-09T12:36:08.424Z,68.58
2022-12-09T12:37:08.427Z,66.78
2022-12-09T12:38:08.416Z,72.73
2022-12-09T12:39:08.397Z,66.97
2022-12-09T12:40:08.648Z,66.20
2022-12-09T12:41:08.392Z,68.07
2022-12-09T12:42:08.374Z,67.08
2022-12-09T12:43:08.369Z,67.67
2022-12-09T12:44:08.358Z,71.08
2022-12-09T12:45:08.353Z,68.49
2022-12-09T12:46:08.381Z,66.78
2022-12-09T12:47:08.350Z,67.23
2022-12-09T12:48:08.384Z,65.22
2022-12-09T12:49:08.331Z,65.44
2022-12-09T12:50:09.301Z,68.49
2022-12-09T12:51:08.310Z,68.01
2022-12-09T12:52:21.027Z,66.40
2022-12-09T12:53:09.294Z,68.72
2022-12-09T12:54:09.947Z,68.27
2022-12-09T12:55:08.271Z,66.42
2022-12-09T12:56:08.273Z,67.59
2022-12-09T12:57:10.136Z,67.58